createdAt,value
2022-11-03T00:01:04.241Z,6.30
2022-11-03T00:03:50.321Z,6.30
2022-11-03T00:06:36.815Z,6.30
2022-11-03T00:09:23.690Z,6.30
2022-11-03T00:12:09.236Z,6.30
2022-11-03T00:14:54.963Z,6.30
2022-11-03T00:17:40.720Z,6.30
2022-11-03T00:20:26.493Z,6.30
2022-11-03T00:23:11.947Z,6.20
2022-11-03T00:26:06.254Z,6.20
2022-11-03T00:28:54.413Z,6.10
2022-11-03T00:31:43.099Z,6.20
2022-11-03T00:34:29.070Z,6.20
2022-11-03T00:37:14.554Z,6.20
2022-11-03T00:40:00.452Z,6.10
2022-11-03T00:42:46.876Z,6.10
2022-11-03T00:45:32.523Z,6.10
2022-11-03T00:48:30.579Z,6.00
2022-11-03T00:51:27.091Z,6.00
2022-11-03T00:54:13.037Z,5.90
2022-11-03T00:56:58.658Z,5.90
2022-11-03T00:59:44.237Z,5.90
2022-11-03T01:02:29.968Z,5.90
2022-11-03T01:05:33.847Z,5.80
2022-11-03T01:08:20.445Z,5.90
2022-11-03T01:11:32.755Z,5.80
2022-11-03T01:14:18.672Z,5.80
2022-11-03T01:17:09.454Z,5.80
2022-11-03T01:19:55.656Z,5.80
2022-11-03T01:22:41.353Z,5.80
2022-11-03T01:25:27.254Z,5.80
2022-11-03T01:28:13.073Z,5.70
2022-11-03T01:31:07.409Z,5.70
2022-11-03T01:33:55.390Z,5.70
2022-11-03T01:36:41.336Z,5.70
2022-11-03T01:39:27.415Z,5.70
2022-11-03T01:42:14.764Z,5.70
2022-11-03T01:45:00.844Z,5.70
2022-11-03T01:47:47.791Z,5.70
2022-11-03T01:50:33.804Z,5.70
2022-11-03T01:53:20.597Z,5.70
2022-11-03T01:56:06.811Z,5.70
2022-11-03T01:58:54.851Z,5.60
2022-11-03T02:01:40.861Z,5.60
2022-11-03T02:04:30.646Z,5.60
2022-11-03T02:07:24.909Z,5.60
2022-11-03T02:10:10.925Z,5.50
2022-11-03T02:12:57.176Z,5.50
2022-11-03T02:15:43.261Z,5.50
2022-11-03T02:18:33.589Z,5.50
2022-11-03T02:21:21.875Z,5.40
2022-11-03T02:24:33.833Z,5.30
2022-11-03T02:27:20.749Z,5.30
2022-11-03T02:30:06.927Z,5.30
2022-11-03T02:33:01.845Z,5.30
2022-11-03T02:36:09.258Z,5.30
2022-11-03T02:39:07.611Z,5.30
2022-11-03T02:41:56.621Z,5.20
2022-11-03T02:44:44.201Z,5.20
2022-11-03T02:47:31.725Z,5.20
2022-11-03T02:50:20.244Z,5.20
2022-11-03T02:53:06.238Z,5.20
2022-11-03T02:55:56.261Z,5.20
2022-11-03T02:58:50.920Z,5.10
2022-11-03T03:01:47.782Z,5.10
2022-11-03T03:04:57.763Z,5.10
2022-11-03T03:07:48.657Z,5.10
2022-11-03T03:10:39.384Z,5.20
2022-11-03T03:13:25.626Z,5.20
2022-11-03T03:16:29.999Z,5.20
2022-11-03T03:19:45.231Z,5.20
2022-11-03T03:22:56.024Z,5.30
2022-11-03T03:26:03.668Z,5.30
2022-11-03T03:29:22.745Z,5.20
2022-11-03T03:32:11.164Z,5.20
2022-11-03T03:34:59.166Z,5.20
2022-11-03T03:37:48.787Z,5.20
2022-11-03T03:40:39.370Z,5.20
2022-11-03T03:43:29.304Z,5.20
2022-11-03T03:46:18.560Z,5.10
2022-11-03T03:49:05.014Z,5.10
2022-11-03T03:51:51.825Z,5.10
2022-11-03T03:54:37.934Z,5.00
2022-11-03T03:57:25.348Z,4.90
2022-11-03T04:00:16.370Z,4.90
2022-11-03T04:03:02.166Z,5.00
2022-11-03T04:05:48.541Z,4.90
2022-11-03T04:08:34.450Z,4.80
2022-11-03T04:11:38.946Z,4.80
2022-11-03T04:14:42.865Z,4.80
2022-11-03T04:20:52.010Z,4.70
2022-11-03T04:23:37.697Z,4.70
2022-11-03T04:26:23.872Z,4.60
2022-11-03T04:29:12.262Z,4.70
2022-11-03T04:31:58.319Z,4.70
2022-11-03T04:34:46.573Z,4.70
2022-11-03T04:37:32.435Z,4.60
2022-11-03T04:40:18.682Z,4.50
2022-11-03T04:43:10.775Z,4.50
2022-11-03T04:45:56.303Z,4.50
2022-11-03T04:48:42.538Z,4.50
2022-11-03T04:51:31.581Z,4.40
2022-11-03T04:54:21.890Z,4.40
2022-11-03T04:57:14.384Z,4.40
2022-11-03T05:00:00.704Z,4.40
2022-11-03T05:02:51.607Z,4.40
2022-11-03T05:05:40.539Z,4.40
2022-11-03T05:08:26.443Z,4.30
2022-11-03T05:11:30.831Z,4.30
2022-11-03T05:14:16.376Z,4.30
2022-11-03T05:17:03.346Z,4.30
2022-11-03T05:19:51.510Z,4.40
2022-11-03T05:22:38.182Z,4.30
2022-11-03T05:25:45.961Z,4.40
2022-11-03T05:28:38.554Z,4.40
2022-11-03T05:31:26.263Z,4.40
2022-11-03T05:34:30.969Z,4.40
2022-11-03T05:37:29.677Z,4.30
2022-11-03T05:40:22.715Z,4.30
2022-11-03T05:43:12.260Z,4.30
2022-11-03T05:46:01.807Z,4.30
2022-11-03T05:48:47.471Z,4.30
2022-11-03T05:51:37.374Z,4.40
2022-11-03T05:54:25.812Z,4.30
2022-11-03T05:57:15.255Z,4.30
2022-11-03T06:00:00.816Z,4.30
2022-11-03T06:02:49.662Z,4.40
2022-11-03T06:05:35.593Z,4.40
2022-11-03T06:08:27.024Z,4.40
2022-11-03T06:11:22.788Z,4.30
2022-11-03T06:14:36.497Z,4.40
2022-11-03T06:17:29.003Z,4.40
2022-11-03T06:20:20.326Z,4.30
2022-11-03T06:23:10.928Z,4.30
2022-11-03T06:25:57.738Z,4.40
2022-11-03T06:28:43.885Z,4.30
2022-11-03T06:31:33.214Z,4.20
2022-11-03T06:34:46.555Z,4.30
2022-11-03T06:37:33.619Z,4.20
2022-11-03T06:40:24.327Z,4.30
2022-11-03T06:43:25.814Z,4.40
2022-11-03T06:46:31.586Z,4.30
2022-11-03T06:49:37.586Z,4.30
2022-11-03T06:52:37.746Z,4.40
2022-11-03T06:55:31.195Z,4.40
2022-11-03T06:58:26.795Z,4.50
2022-11-03T07:01:20.008Z,4.60
2022-11-03T07:04:30.153Z,4.70
2022-11-03T07:07:26.217Z,4.70
2022-11-03T07:10:11.748Z,4.80
2022-11-03T07:13:06.726Z,4.90
2022-11-03T07:15:52.905Z,5.10
2022-11-03T07:18:43.182Z,5.20
2022-11-03T07:21:38.325Z,5.40
2022-11-03T07:24:25.198Z,5.50
2022-11-03T07:27:38.867Z,5.60
2022-11-03T07:30:30.347Z,5.60
2022-11-03T07:33:21.467Z,5.70
2022-11-03T07:36:15.782Z,5.70
2022-11-03T07:39:03.442Z,5.80
2022-11-03T07:41:50.296Z,5.90
2022-11-03T07:44:35.855Z,5.90
2022-11-03T07:47:26.105Z,6.00
2022-11-03T07:50:16.109Z,6.00
2022-11-03T07:53:01.930Z,6.10
2022-11-03T07:55:47.852Z,6.20
2022-11-03T07:58:40.239Z,6.30
2022-11-03T08:01:31.093Z,6.40
2022-11-03T08:04:24.987Z,6.50
2022-11-03T08:07:10.824Z,6.70
2022-11-03T08:09:56.878Z,6.80
2022-11-03T08:12:42.444Z,7.00
2022-11-03T08:15:28.143Z,7.10
2022-11-03T08:18:13.780Z,7.10
2022-11-03T08:20:59.438Z,7.20
2022-11-03T08:23:47.687Z,7.30
2022-11-03T08:26:33.927Z,7.40
2022-11-03T08:29:19.770Z,7.50
2022-11-03T08:32:05.593Z,7.60
2022-11-03T08:34:51.080Z,7.70
2022-11-03T08:37:36.853Z,7.90
2022-11-03T08:40:22.809Z,8.00
2022-11-03T08:43:08.781Z,8.10
2022-11-03T08:45:55.033Z,8.10
2022-11-03T08:48:41.805Z,8.20
2022-11-03T08:51:27.713Z,8.30
2022-11-03T08:54:13.611Z,8.30
2022-11-03T08:56:59.398Z,8.30
2022-11-03T08:59:45.055Z,8.40
2022-11-03T09:02:30.713Z,8.50
2022-11-03T09:05:16.378Z,8.60
2022-11-03T09:11:08.322Z,8.60
2022-11-03T09:13:54.441Z,8.60
2022-11-03T09:16:40.047Z,8.80
2022-11-03T09:19:25.763Z,8.80
2022-11-03T09:22:11.244Z,9.00
2022-11-03T09:24:56.978Z,9.20
2022-11-03T09:27:42.246Z,9.40
2022-11-03T09:30:29.227Z,9.70
2022-11-03T09:33:14.926Z,9.80
2022-11-03T09:36:02.156Z,10.10
2022-11-03T09:38:48.286Z,10.20
2022-11-03T09:41:55.905Z,10.40
2022-11-03T09:44:40.314Z,10.40
2022-11-03T09:47:33.400Z,10.40
2022-11-03T09:50:21.012Z,10.50
2022-11-03T09:53:07.088Z,10.50
2022-11-03T09:55:52.866Z,10.40
2022-11-03T09:58:38.829Z,10.40
2022-11-03T10:01:24.440Z,10.40
2022-11-03T10:04:13.906Z,10.40
2022-11-03T10:06:59.609Z,10.40
2022-11-03T10:09:48.705Z,10.50
2022-11-03T10:12:37.982Z,10.60
2022-11-03T10:15:26.276Z,10.70
2022-11-03T10:18:11.515Z,10.80
2022-11-03T10:21:02.552Z,10.80
2022-11-03T10:23:50.486Z,10.90
2022-11-03T10:26:49.489Z,11.10
2022-11-03T10:29:38.809Z,11.10
2022-11-03T10:32:34.571Z,11.10
2022-11-03T10:35:36.440Z,11.20
2022-11-03T10:38:28.730Z,11.10
2022-11-03T10:41:21.377Z,11.30
2022-11-03T10:44:12.669Z,11.40
2022-11-03T10:47:07.591Z,11.50
2022-11-03T10:49:55.210Z,11.60
2022-11-03T10:52:40.994Z,11.70
2022-11-03T10:55:27.567Z,11.90
2022-11-03T10:58:13.209Z,12.00
2022-11-03T11:00:58.709Z,12.00
2022-11-03T11:03:45.585Z,12.10
2022-11-03T11:06:31.732Z,12.20
2022-11-03T11:09:26.398Z,12.40
2022-11-03T11:12:22.432Z,12.50
2022-11-03T11:15:46.649Z,12.60
2022-11-03T11:18:32.089Z,12.70
2022-11-03T11:21:17.865Z,12.80
2022-11-03T11:24:03.699Z,12.80
2022-11-03T11:26:50.940Z,12.90
2022-11-03T11:29:36.644Z,13.00
2022-11-03T11:33:12.781Z,13.10
2022-11-03T11:35:59.305Z,13.30
2022-11-03T11:38:49.412Z,13.50
2022-11-03T11:42:06.239Z,13.50
2022-11-03T11:44:54.972Z,13.50
2022-11-03T11:47:50.540Z,13.70
2022-11-03T11:50:36.423Z,13.70
2022-11-03T11:53:27.497Z,13.80
2022-11-03T11:56:16.740Z,13.80
2022-11-03T11:59:03.012Z,13.80
2022-11-03T12:01:51.947Z,13.90
2022-11-03T12:04:37.789Z,14.00
2022-11-03T12:07:35.997Z,14.00
2022-11-03T12:10:29.010Z,14.10
2022-11-03T12:13:51.384Z,14.30
2022-11-03T12:16:48.066Z,14.40
2022-11-03T12:19:52.768Z,14.30
2022-11-03T12:22:38.049Z,14.30
2022-11-03T12:25:37.512Z,14.20
2022-11-03T12:28:36.700Z,14.00
2022-11-03T12:31:22.711Z,13.90
2022-11-03T12:34:08.164Z,13.80
2022-11-03T12:36:56.405Z,13.80
2022-11-03T12:39:42.434Z,13.70
2022-11-03T12:42:28.237Z,13.50
2022-11-03T12:45:13.994Z,13.50
2022-11-03T12:47:59.160Z,13.50
2022-11-03T12:50:45.121Z,13.50
2022-11-03T12:53:30.778Z,13.50
2022-11-03T12:56:17.898Z,13.50
2022-11-03T12:59:03.785Z,13.40
2022-11-03T13:01:49.161Z,13.50
2022-11-03T13:04:34.669Z,13.70
2022-11-03T13:07:26.633Z,13.80
2022-11-03T13:10:14.579Z,13.70
2022-11-03T13:12:59.944Z,13.60
2022-11-03T13:15:45.780Z,13.60
2022-11-03T13:18:31.308Z,13.60
2022-11-03T13:21:17.066Z,13.40
2022-11-03T13:24:02.964Z,13.50
2022-11-03T13:26:48.609Z,13.50
2022-11-03T13:29:35.739Z,13.30
2022-11-03T13:32:21.626Z,13.30
2022-11-03T13:35:12.392Z,13.20
2022-11-03T13:37:59.197Z,13.20
2022-11-03T13:41:05.317Z,13.20
2022-11-03T13:43:50.406Z,13.30
2022-11-03T13:46:35.931Z,13.40
2022-11-03T13:49:59.361Z,13.40
2022-11-03T13:52:28.613Z,13.40
2022-11-03T14:01:25.577Z,13.40
2022-11-03T14:07:17.162Z,13.30
2022-11-03T14:10:04.546Z,13.20
2022-11-03T14:12:50.137Z,13.20
2022-11-03T14:15:35.656Z,13.20
2022-11-03T14:18:21.007Z,13.20
2022-11-03T14:21:06.512Z,13.20
2022-11-03T14:23:52.153Z,13.10
2022-11-03T14:26:42.699Z,13.20
2022-11-03T14:29:28.652Z,13.20
2022-11-03T14:32:14.290Z,13.20
2022-11-03T14:34:59.593Z,13.40
2022-11-03T14:37:45.307Z,13.30
2022-11-03T14:40:49.427Z,13.20
2022-11-03T14:43:35.341Z,13.20
2022-11-03T14:46:21.010Z,13.20
2022-11-03T14:49:06.860Z,13.30
2022-11-03T14:51:52.360Z,13.30
2022-11-03T14:54:38.076Z,13.20
2022-11-03T14:57:23.393Z,13.10
2022-11-03T15:00:11.389Z,13.10
2022-11-03T15:02:57.383Z,13.00
2022-11-03T15:05:45.842Z,13.00
2022-11-03T15:08:32.582Z,12.80
2022-11-03T15:11:18.309Z,12.70
2022-11-03T15:14:04.250Z,12.60
2022-11-03T15:16:49.742Z,12.60
2022-11-03T15:19:35.758Z,12.60
2022-11-03T15:25:30.268Z,12.60
2022-11-03T15:28:21.201Z,12.60
2022-11-03T15:31:07.109Z,12.60
2022-11-03T15:33:52.476Z,12.60
2022-11-03T15:36:37.901Z,12.80
2022-11-03T15:39:23.582Z,12.70
2022-11-03T15:42:08.897Z,12.60
2022-11-03T15:44:55.158Z,12.50
2022-11-03T15:47:41.043Z,12.50
2022-11-03T15:50:27.107Z,12.40
2022-11-03T15:53:12.802Z,12.30
2022-11-03T15:55:58.366Z,12.30
2022-11-03T15:58:43.899Z,12.40
2022-11-03T16:01:29.683Z,12.30
2022-11-03T16:04:16.316Z,12.40
2022-11-03T16:07:07.671Z,12.40
2022-11-03T16:09:54.251Z,12.30
2022-11-03T16:12:40.302Z,12.20
2022-11-03T16:15:26.164Z,12.10
2022-11-03T16:18:12.090Z,12.10
2022-11-03T16:20:58.052Z,12.20
2022-11-03T16:23:43.424Z,12.20
2022-11-03T16:26:31.629Z,12.20
2022-11-03T16:29:17.330Z,12.20
2022-11-03T16:32:02.770Z,12.20
2022-11-03T16:34:48.670Z,12.20
2022-11-03T16:37:34.097Z,12.20
2022-11-03T16:40:20.294Z,12.10
2022-11-03T16:43:05.510Z,12.00
2022-11-03T16:45:52.128Z,12.10
2022-11-03T16:48:37.540Z,12.00
2022-11-03T16:51:23.377Z,11.90
2022-11-03T16:54:09.557Z,11.90
2022-11-03T16:56:55.220Z,12.10
2022-11-03T16:59:40.658Z,12.10
2022-11-03T17:02:28.012Z,12.20
2022-11-03T17:05:15.720Z,12.10
2022-11-03T17:08:01.667Z,11.90
2022-11-03T17:10:47.501Z,11.90
2022-11-03T17:13:32.948Z,11.90
2022-11-03T17:16:18.433Z,11.80
2022-11-03T17:19:03.982Z,11.90
2022-11-03T17:21:49.389Z,11.90
2022-11-03T17:24:35.198Z,12.00
2022-11-03T17:27:38.324Z,12.20
2022-11-03T17:30:26.810Z,12.20
2022-11-03T17:33:17.138Z,12.10
2022-11-03T17:36:02.708Z,12.00
2022-11-03T17:38:48.439Z,12.00
2022-11-03T17:41:36.679Z,11.90
2022-11-03T17:44:22.445Z,11.90
2022-11-03T17:47:08.053Z,11.80
2022-11-03T17:49:53.703Z,11.70
2022-11-03T17:52:39.556Z,11.70
2022-11-03T17:55:30.895Z,11.60
2022-11-03T17:58:17.089Z,11.60
2022-11-03T18:01:22.178Z,11.70
2022-11-03T18:06:58.190Z,11.50
2022-11-03T18:09:43.900Z,11.40
2022-11-03T18:12:54.619Z,11.50
2022-11-03T18:15:41.612Z,11.40
2022-11-03T18:18:35.205Z,11.50
2022-11-03T18:21:23.334Z,11.50
2022-11-03T18:24:19.643Z,11.50
2022-11-03T18:27:11.869Z,11.40
2022-11-03T18:29:57.588Z,11.40
2022-11-03T18:32:48.384Z,11.30
2022-11-03T18:35:34.537Z,11.20
2022-11-03T18:38:22.553Z,11.10
2022-11-03T18:41:39.454Z,11.10
2022-11-03T18:44:30.910Z,11.10
2022-11-03T18:47:16.591Z,11.10
2022-11-03T18:50:01.977Z,11.40
2022-11-03T18:52:51.320Z,11.40
2022-11-03T18:55:36.661Z,11.40
2022-11-03T18:58:24.482Z,11.30
2022-11-03T19:01:21.320Z,11.20
2022-11-03T19:04:15.050Z,11.10
2022-11-03T19:07:02.957Z,11.00
2022-11-03T19:09:49.068Z,11.00
2022-11-03T19:12:38.725Z,11.00
2022-11-03T19:15:26.015Z,11.00
2022-11-03T19:18:13.132Z,11.00
2022-11-03T19:20:58.833Z,11.00
2022-11-03T19:23:47.947Z,11.00
2022-11-03T19:26:42.465Z,11.20
2022-11-03T19:29:31.224Z,11.30
2022-11-03T19:32:22.418Z,11.20
2022-11-03T19:35:15.548Z,11.10
2022-11-03T19:38:07.437Z,11.00
2022-11-03T19:41:16.097Z,11.10
2022-11-03T19:44:01.555Z,11.20
2022-11-03T19:46:47.561Z,11.10
2022-11-03T19:49:34.320Z,11.10
2022-11-03T19:52:24.990Z,11.00
2022-11-03T19:55:12.877Z,10.90
2022-11-03T19:58:05.578Z,10.90
2022-11-03T20:00:54.754Z,10.90
2022-11-03T20:03:40.798Z,10.90
2022-11-03T20:06:26.119Z,11.00
2022-11-03T20:09:18.563Z,11.30
2022-11-03T20:12:07.214Z,11.40
2022-11-03T20:14:54.008Z,11.30
2022-11-03T20:17:39.721Z,11.20
2022-11-03T20:20:28.298Z,11.10
2022-11-03T20:23:25.730Z,11.10
2022-11-03T20:26:15.552Z,11.00
2022-11-03T20:29:02.329Z,10.90
2022-11-03T20:31:48.012Z,10.90
2022-11-03T20:34:33.801Z,10.80
2022-11-03T20:37:20.273Z,10.80
2022-11-03T20:40:12.986Z,10.80
2022-11-03T20:43:00.987Z,10.70
2022-11-03T20:45:47.042Z,10.60
2022-11-03T20:48:32.340Z,10.60
2022-11-03T20:51:19.834Z,10.60
2022-11-03T20:54:34.922Z,10.70
2022-11-03T20:57:20.313Z,10.80
2022-11-03T21:00:06.175Z,10.70
2022-11-03T21:02:52.117Z,10.60
2022-11-03T21:05:37.627Z,10.60
2022-11-03T21:08:23.282Z,10.60
2022-11-03T21:11:24.297Z,10.50
2022-11-03T21:14:26.089Z,10.50
2022-11-03T21:17:32.647Z,10.50
2022-11-03T21:20:18.115Z,10.70
2022-11-03T21:23:14.956Z,10.70
2022-11-03T21:26:00.514Z,10.70
2022-11-03T21:28:46.202Z,10.70
2022-11-03T21:31:31.744Z,10.90
2022-11-03T21:34:17.224Z,10.80
2022-11-03T21:37:02.721Z,10.80
2022-11-03T21:39:48.753Z,10.80
2022-11-03T21:42:52.532Z,10.70
2022-11-03T21:45:38.193Z,10.70
2022-11-03T21:48:42.070Z,10.70
2022-11-03T21:51:27.538Z,10.70
2022-11-03T21:54:15.333Z,10.70
2022-11-03T21:57:00.924Z,10.60
2022-11-03T21:59:46.342Z,10.60
2022-11-03T22:02:31.993Z,10.70
2022-11-03T22:05:17.766Z,10.70
2022-11-03T22:08:03.190Z,10.90
2022-11-03T22:10:48.597Z,11.10
2022-11-03T22:13:34.060Z,11.30
2022-11-03T22:16:38.640Z,11.40
2022-11-03T22:19:42.673Z,11.50
2022-11-03T22:22:46.820Z,11.60
2022-11-03T22:25:51.242Z,11.60
2022-11-03T22:28:36.663Z,11.70
2022-11-03T22:31:40.752Z,11.60
2022-11-03T22:34:44.559Z,11.60
2022-11-03T22:40:33.197Z,11.60
2022-11-03T22:43:37.653Z,11.50
2022-11-03T22:46:23.178Z,11.50
2022-11-03T22:49:09.003Z,11.50
2022-11-03T22:51:54.515Z,11.50
2022-11-03T22:54:40.178Z,11.50
2022-11-03T22:57:25.693Z,11.40
2022-11-03T23:00:13.517Z,11.40
2022-11-03T23:02:58.927Z,11.40
2022-11-03T23:05:44.408Z,11.40
2022-11-03T23:08:32.508Z,11.40
2022-11-03T23:11:20.528Z,11.30
2022-11-03T23:14:08.623Z,11.30
2022-11-03T23:16:54.028Z,11.20
2022-11-03T23:19:58.020Z,11.20
2022-11-03T23:22:44.078Z,11.30
2022-11-03T23:25:29.384Z,11.20
2022-11-03T23:28:14.973Z,11.20
2022-11-03T23:31:00.660Z,11.20
2022-11-03T23:33:46.406Z,11.20
2022-11-03T23:36:32.028Z,11.20
2022-11-03T23:39:20.432Z,11.20
2022-11-03T23:42:06.275Z,11.30
2022-11-03T23:45:09.779Z,11.30
2022-11-03T23:48:13.982Z,11.20
2022-11-03T23:50:59.730Z,11.20
2022-11-03T23:53:46.594Z,11.20
2022-11-03T23:56:54.708Z,11.10
2022-11-03T23:59:40.674Z,11.10
